RBG9990 HEAX-HECA
Flight info
| Callsign | RBG9990 |
|---|---|
| Flight time | 0h 31m |
| Altitude | 17000 |
| Route | ALPAM V604 NOZ L617 CVO |
| Aircraft | A320/M-SDE3FGHIRWY/LB1 |
Departure
| Time | 2026-04-29 23:15 |
|---|---|
| Airport | Alexandria International Airport (HEAX) |
Arrival
| Time | 2026-04-29 23:47 |
|---|---|
| Airport | Cairo International Airport (HECA) |
| Time | Latitude | Longitude | Altitude | Speed | Heading |
|---|---|---|---|---|---|
| 2026-04-29 22:58 | 30.93281 | 29.69457 | 0 ft | 0 kts | 53° |
| 2026-04-29 23:04 | 30.93279 | 29.69454 | 181 ft | 3 kts | 53° |
| 2026-04-29 23:04 | 30.93263 | 29.69430 | 186 ft | 4 kts | 49° |
| 2026-04-29 23:05 | 30.93244 | 29.69408 | 184 ft | 4 kts | 40° |
| 2026-04-29 23:05 | 30.93222 | 29.69391 | 184 ft | 4 kts | 11° |
| 2026-04-29 23:05 | 30.93207 | 29.69392 | 184 ft | 0 kts | 323° |
| 2026-04-29 23:10 | 30.93210 | 29.69389 | 184 ft | 4 kts | 323° |
| 2026-04-29 23:11 | 30.93233 | 29.69369 | 184 ft | 8 kts | 323° |
| 2026-04-29 23:11 | 30.93265 | 29.69318 | 184 ft | 8 kts | 277° |
| 2026-04-29 23:11 | 30.93234 | 29.69242 | 184 ft | 13 kts | 232° |
| 2026-04-29 23:11 | 30.93182 | 29.69163 | 184 ft | 11 kts | 233° |
| 2026-04-29 23:12 | 30.93131 | 29.69085 | 183 ft | 12 kts | 233° |
| 2026-04-29 23:12 | 30.93079 | 29.69006 | 183 ft | 12 kts | 233° |
| 2026-04-29 23:12 | 30.93032 | 29.68934 | 183 ft | 10 kts | 233° |
| 2026-04-29 23:12 | 30.92992 | 29.68873 | 183 ft | 9 kts | 233° |
| 2026-04-29 23:13 | 30.92946 | 29.68802 | 183 ft | 16 kts | 233° |
| 2026-04-29 23:13 | 30.92886 | 29.68708 | 184 ft | 11 kts | 233° |
| 2026-04-29 23:13 | 30.92900 | 29.68639 | 184 ft | 9 kts | 321° |
| 2026-04-29 23:13 | 30.92944 | 29.68600 | 185 ft | 8 kts | 328° |
| 2026-04-29 23:14 | 30.92995 | 29.68555 | 194 ft | 8 kts | 244° |
| 2026-04-29 23:14 | 30.92973 | 29.68571 | 191 ft | 10 kts | 128° |
| 2026-04-29 23:14 | 30.92942 | 29.68601 | 185 ft | 0 kts | 143° |
| 2026-04-29 23:14 | 30.92941 | 29.68602 | 185 ft | 4 kts | 143° |
| 2026-04-29 23:15 | 30.92720 | 29.68795 | 182 ft | 78 kts | 144° |
| 2026-04-29 23:15 | 30.92112 | 29.69330 | 184 ft | 139 kts | 142° |
| 2026-04-29 23:15 | 30.91220 | 29.70132 | 266 ft | 177 kts | 141° |
| 2026-04-29 23:15 | 30.90241 | 29.71045 | 856 ft | 184 kts | 141° |
| 2026-04-29 23:16 | 30.89236 | 29.71995 | 1544 ft | 187 kts | 140° |
| 2026-04-29 23:16 | 30.88329 | 29.73053 | 2232 ft | 184 kts | 120° |
| 2026-04-29 23:16 | 30.87973 | 29.74459 | 2861 ft | 182 kts | 86° |
| 2026-04-29 23:16 | 30.88321 | 29.75834 | 3450 ft | 177 kts | 52° |
| 2026-04-29 23:17 | 30.89218 | 29.76761 | 3919 ft | 180 kts | 22° |
| 2026-04-29 23:17 | 30.90441 | 29.77358 | 4174 ft | 202 kts | 19° |
| 2026-04-29 23:17 | 30.91830 | 29.78015 | 4445 ft | 228 kts | 19° |
| 2026-04-29 23:17 | 30.93373 | 29.78747 | 4820 ft | 252 kts | 19° |
| 2026-04-29 23:18 | 30.95065 | 29.79555 | 5315 ft | 270 kts | 19° |
| 2026-04-29 23:18 | 30.96825 | 29.80405 | 6081 ft | 278 kts | 19° |
| 2026-04-29 23:18 | 30.98625 | 29.81278 | 6887 ft | 283 kts | 19° |
| 2026-04-29 23:18 | 31.00450 | 29.82166 | 7718 ft | 286 kts | 19° |
| 2026-04-29 23:19 | 31.02292 | 29.83061 | 8573 ft | 288 kts | 18° |
| 2026-04-29 23:19 | 31.04126 | 29.83951 | 9421 ft | 291 kts | 18° |
| 2026-04-29 23:19 | 31.06000 | 29.84864 | 10242 ft | 294 kts | 20° |
| 2026-04-29 23:19 | 31.07800 | 29.86084 | 10828 ft | 310 kts | 31° |
| 2026-04-29 23:20 | 31.09638 | 29.87569 | 11078 ft | 332 kts | 31° |
| 2026-04-29 23:20 | 31.11556 | 29.89139 | 11643 ft | 340 kts | 32° |
| 2026-04-29 23:20 | 31.13501 | 29.90742 | 12379 ft | 344 kts | 32° |
| 2026-04-29 23:20 | 31.15311 | 29.92603 | 13103 ft | 352 kts | 47° |
| 2026-04-29 23:21 | 31.16601 | 29.95015 | 13814 ft | 360 kts | 65° |
| 2026-04-29 23:21 | 31.17257 | 29.97859 | 14458 ft | 368 kts | 82° |
| 2026-04-29 23:21 | 31.17148 | 30.00860 | 15075 ft | 375 kts | 101° |
| 2026-04-29 23:21 | 31.16415 | 30.03799 | 15683 ft | 379 kts | 107° |
| 2026-04-29 23:22 | 31.15609 | 30.06748 | 16293 ft | 383 kts | 107° |
| 2026-04-29 23:22 | 31.14790 | 30.09727 | 16882 ft | 387 kts | 107° |
| 2026-04-29 23:22 | 31.13964 | 30.12733 | 17476 ft | 392 kts | 107° |
| 2026-04-29 23:22 | 31.13132 | 30.15777 | 18061 ft | 396 kts | 106° |
| 2026-04-29 23:23 | 31.12291 | 30.18854 | 18604 ft | 400 kts | 106° |
| 2026-04-29 23:23 | 31.11441 | 30.21961 | 19106 ft | 404 kts | 106° |
| 2026-04-29 23:23 | 31.10593 | 30.25052 | 19610 ft | 407 kts | 106° |
| 2026-04-29 23:23 | 31.09612 | 30.28165 | 19961 ft | 411 kts | 115° |
| 2026-04-29 23:24 | 31.08145 | 30.31022 | 20051 ft | 406 kts | 127° |
| 2026-04-29 23:24 | 31.06282 | 30.33409 | 20069 ft | 394 kts | 138° |
| 2026-04-29 23:24 | 31.04293 | 30.35581 | 20068 ft | 391 kts | 138° |
| 2026-04-29 23:24 | 31.02317 | 30.37745 | 20068 ft | 390 kts | 138° |
| 2026-04-29 23:25 | 31.00342 | 30.39912 | 20069 ft | 390 kts | 137° |
| 2026-04-29 23:25 | 30.98373 | 30.42077 | 20070 ft | 390 kts | 137° |
| 2026-04-29 23:25 | 30.96404 | 30.44245 | 20071 ft | 389 kts | 138° |
| 2026-04-29 23:25 | 30.94459 | 30.46384 | 20070 ft | 389 kts | 138° |
| 2026-04-29 23:26 | 30.92490 | 30.48548 | 20071 ft | 389 kts | 138° |
| 2026-04-29 23:26 | 30.90520 | 30.50710 | 20067 ft | 389 kts | 138° |
| 2026-04-29 23:26 | 30.88553 | 30.52867 | 20072 ft | 389 kts | 138° |
| 2026-04-29 23:26 | 30.86584 | 30.55024 | 20075 ft | 389 kts | 138° |
| 2026-04-29 23:27 | 30.84616 | 30.57178 | 20071 ft | 389 kts | 138° |
| 2026-04-29 23:27 | 30.82648 | 30.59330 | 20071 ft | 389 kts | 138° |
| 2026-04-29 23:27 | 30.80679 | 30.61483 | 20072 ft | 389 kts | 138° |
| 2026-04-29 23:27 | 30.78709 | 30.63641 | 20072 ft | 388 kts | 138° |
| 2026-04-29 23:28 | 30.76741 | 30.65794 | 20075 ft | 388 kts | 138° |
| 2026-04-29 23:28 | 30.74774 | 30.67944 | 20073 ft | 388 kts | 138° |
| 2026-04-29 23:28 | 30.72839 | 30.70060 | 20066 ft | 383 kts | 138° |
| 2026-04-29 23:28 | 30.70933 | 30.72146 | 19925 ft | 372 kts | 139° |
| 2026-04-29 23:29 | 30.69061 | 30.74189 | 19635 ft | 367 kts | 139° |
| 2026-04-29 23:29 | 30.67210 | 30.76208 | 19292 ft | 364 kts | 139° |
| 2026-04-29 23:29 | 30.65370 | 30.78211 | 18943 ft | 361 kts | 139° |
| 2026-04-29 23:29 | 30.63544 | 30.80200 | 18595 ft | 359 kts | 139° |
| 2026-04-29 23:30 | 30.61727 | 30.82179 | 18239 ft | 357 kts | 139° |
| 2026-04-29 23:30 | 30.59923 | 30.84142 | 17847 ft | 355 kts | 139° |
| 2026-04-29 23:30 | 30.58130 | 30.86094 | 17472 ft | 352 kts | 139° |
| 2026-04-29 23:30 | 30.56345 | 30.88031 | 17102 ft | 350 kts | 139° |
| 2026-04-29 23:31 | 30.54599 | 30.89924 | 16752 ft | 348 kts | 139° |
| 2026-04-29 23:31 | 30.52835 | 30.91834 | 16398 ft | 346 kts | 139° |
| 2026-04-29 23:31 | 30.51083 | 30.93732 | 16055 ft | 344 kts | 139° |
| 2026-04-29 23:31 | 30.49330 | 30.95602 | 15719 ft | 341 kts | 143° |
| 2026-04-29 23:32 | 30.47303 | 30.96920 | 15387 ft | 332 kts | 165° |
| 2026-04-29 23:32 | 30.45090 | 30.97630 | 15036 ft | 329 kts | 169° |
| 2026-04-29 23:32 | 30.42870 | 30.98253 | 14704 ft | 328 kts | 170° |
| 2026-04-29 23:32 | 30.40656 | 30.98862 | 14382 ft | 326 kts | 170° |
| 2026-04-29 23:33 | 30.38485 | 30.99454 | 14065 ft | 324 kts | 170° |
| 2026-04-29 23:33 | 30.36292 | 31.00048 | 13739 ft | 323 kts | 170° |
| 2026-04-29 23:33 | 30.34111 | 31.00635 | 13381 ft | 321 kts | 170° |
| 2026-04-29 23:33 | 30.31944 | 31.01216 | 13033 ft | 319 kts | 170° |
| 2026-04-29 23:34 | 30.29783 | 31.01792 | 12676 ft | 318 kts | 170° |
| 2026-04-29 23:34 | 30.27632 | 31.02362 | 12290 ft | 317 kts | 170° |
| 2026-04-29 23:34 | 30.25466 | 31.02931 | 11786 ft | 320 kts | 170° |
| 2026-04-29 23:34 | 30.23318 | 31.03489 | 11292 ft | 313 kts | 170° |
| 2026-04-29 23:35 | 30.21218 | 31.03828 | 10813 ft | 305 kts | 186° |
| 2026-04-29 23:35 | 30.19137 | 31.03485 | 10340 ft | 300 kts | 194° |
| 2026-04-29 23:35 | 30.17104 | 31.03006 | 9852 ft | 297 kts | 195° |
| 2026-04-29 23:35 | 30.15091 | 31.02514 | 9341 ft | 295 kts | 195° |
| 2026-04-29 23:36 | 30.13091 | 31.02023 | 8832 ft | 294 kts | 195° |
| 2026-04-29 23:36 | 30.11076 | 31.01528 | 8328 ft | 297 kts | 195° |
| 2026-04-29 23:36 | 30.09053 | 31.01032 | 7830 ft | 298 kts | 195° |
| 2026-04-29 23:36 | 30.07018 | 31.00532 | 7334 ft | 298 kts | 195° |
| 2026-04-29 23:37 | 30.05054 | 31.00052 | 6857 ft | 288 kts | 195° |
| 2026-04-29 23:37 | 30.03126 | 30.99586 | 6369 ft | 278 kts | 195° |
| 2026-04-29 23:37 | 30.01235 | 30.99404 | 5957 ft | 269 kts | 178° |
| 2026-04-29 23:37 | 29.99404 | 30.99624 | 5536 ft | 260 kts | 175° |
| 2026-04-29 23:38 | 29.97641 | 30.99888 | 5117 ft | 252 kts | 175° |
| 2026-04-29 23:38 | 29.95994 | 31.00442 | 4690 ft | 246 kts | 149° |
| 2026-04-29 23:38 | 29.94731 | 31.01735 | 4265 ft | 242 kts | 132° |
| 2026-04-29 23:38 | 29.93628 | 31.03189 | 3837 ft | 239 kts | 129° |
| 2026-04-29 23:39 | 29.92809 | 31.04782 | 3534 ft | 229 kts | 104° |
| 2026-04-29 23:39 | 29.92646 | 31.06532 | 3480 ft | 213 kts | 80° |
| 2026-04-29 23:39 | 29.93046 | 31.08138 | 3493 ft | 207 kts | 66° |
| 2026-04-29 23:39 | 29.93548 | 31.09681 | 3489 ft | 205 kts | 67° |
| 2026-04-29 23:40 | 29.94050 | 31.11220 | 3498 ft | 205 kts | 66° |
| 2026-04-29 23:40 | 29.94549 | 31.12752 | 3493 ft | 204 kts | 67° |
| 2026-04-29 23:40 | 29.94989 | 31.14108 | 3494 ft | 204 kts | 67° |
| 2026-04-29 23:40 | 29.95487 | 31.15642 | 3490 ft | 204 kts | 67° |
| 2026-04-29 23:41 | 29.95980 | 31.17159 | 3468 ft | 205 kts | 67° |
| 2026-04-29 23:41 | 29.96482 | 31.18696 | 3472 ft | 205 kts | 67° |
| 2026-04-29 23:41 | 29.96983 | 31.20232 | 3472 ft | 205 kts | 67° |
| 2026-04-29 23:41 | 29.97484 | 31.21768 | 3466 ft | 205 kts | 67° |
| 2026-04-29 23:42 | 29.97984 | 31.23305 | 3466 ft | 205 kts | 67° |
| 2026-04-29 23:42 | 29.98636 | 31.24699 | 3493 ft | 189 kts | 50° |
| 2026-04-29 23:42 | 29.99435 | 31.25823 | 3413 ft | 175 kts | 47° |
| 2026-04-29 23:42 | 30.00199 | 31.26843 | 3237 ft | 161 kts | 46° |
| 2026-04-29 23:43 | 30.00908 | 31.27786 | 3071 ft | 150 kts | 46° |
| 2026-04-29 23:43 | 30.01576 | 31.28672 | 2877 ft | 146 kts | 47° |
| 2026-04-29 23:43 | 30.02236 | 31.29548 | 2686 ft | 143 kts | 47° |
| 2026-04-29 23:43 | 30.02887 | 31.30412 | 2499 ft | 143 kts | 47° |
| 2026-04-29 23:44 | 30.03534 | 31.31271 | 2308 ft | 141 kts | 47° |
| 2026-04-29 23:44 | 30.04175 | 31.32121 | 2117 ft | 140 kts | 47° |
| 2026-04-29 23:44 | 30.04815 | 31.32971 | 1935 ft | 140 kts | 48° |
| 2026-04-29 23:44 | 30.05451 | 31.33816 | 1743 ft | 139 kts | 48° |
| 2026-04-29 23:45 | 30.06088 | 31.34662 | 1556 ft | 139 kts | 48° |
| 2026-04-29 23:45 | 30.06721 | 31.35503 | 1380 ft | 139 kts | 48° |
| 2026-04-29 23:45 | 30.07343 | 31.36331 | 1192 ft | 138 kts | 48° |
| 2026-04-29 23:45 | 30.07969 | 31.37163 | 1015 ft | 136 kts | 48° |
| 2026-04-29 23:46 | 30.08590 | 31.37989 | 837 ft | 136 kts | 48° |
| 2026-04-29 23:46 | 30.09210 | 31.38811 | 659 ft | 135 kts | 48° |
| 2026-04-29 23:46 | 30.09822 | 31.39628 | 491 ft | 135 kts | 49° |
| 2026-04-29 23:46 | 30.10419 | 31.40425 | 393 ft | 120 kts | 48° |
| 2026-04-29 23:47 | 30.10869 | 31.41023 | 388 ft | 74 kts | 49° |
| 2026-04-29 23:47 | 30.11095 | 31.41323 | 389 ft | 25 kts | 49° |
| 2026-04-29 23:47 | 30.11194 | 31.41454 | 388 ft | 23 kts | 48° |
| 2026-04-29 23:47 | 30.11330 | 31.41559 | 388 ft | 25 kts | 31° |
| 2026-04-29 23:48 | 30.11459 | 31.41615 | 389 ft | 17 kts | 17° |
| 2026-04-29 23:48 | 30.11572 | 31.41607 | 389 ft | 17 kts | 341° |
| 2026-04-29 23:48 | 30.11680 | 31.41554 | 390 ft | 15 kts | 300° |
| 2026-04-29 23:48 | 30.11664 | 31.41441 | 390 ft | 14 kts | 251° |
| 2026-04-29 23:49 | 30.11636 | 31.41344 | 390 ft | 12 kts | 251° |
| 2026-04-29 23:49 | 30.11609 | 31.41252 | 390 ft | 13 kts | 252° |
| 2026-04-29 23:49 | 30.11649 | 31.41171 | 390 ft | 15 kts | 345° |
| 2026-04-29 23:49 | 30.11761 | 31.41132 | 390 ft | 19 kts | 342° |
| 2026-04-29 23:50 | 30.11889 | 31.41087 | 390 ft | 20 kts | 344° |
| 2026-04-29 23:50 | 30.12023 | 31.41039 | 390 ft | 21 kts | 343° |
| 2026-04-29 23:50 | 30.12307 | 31.40936 | 390 ft | 22 kts | 342° |
| 2026-04-29 23:51 | 30.12455 | 31.40881 | 390 ft | 23 kts | 342° |
| 2026-04-29 23:51 | 30.12608 | 31.40828 | 390 ft | 23 kts | 343° |
| 2026-04-29 23:51 | 30.12741 | 31.40778 | 390 ft | 18 kts | 341° |
| 2026-04-29 23:51 | 30.12863 | 31.40735 | 390 ft | 15 kts | 344° |
| 2026-04-29 23:52 | 30.12931 | 31.40696 | 390 ft | 9 kts | 293° |
| 2026-04-29 23:52 | 30.12937 | 31.40641 | 390 ft | 6 kts | 314° |
| 2026-04-29 23:52 | 30.12970 | 31.40602 | 390 ft | 5 kts | 312° |
| 2026-04-29 23:52 | 30.12981 | 31.40588 | 390 ft | 0 kts | 313° |